createdAt,value
2023-02-22T00:00:44.360Z,8.38
2023-02-22T00:05:53.660Z,8.37
2023-02-22T00:10:59.303Z,8.35
2023-02-22T00:16:03.409Z,8.35
2023-02-22T00:21:10.584Z,8.34
2023-02-22T00:26:20.402Z,8.32
2023-02-22T00:31:22.634Z,8.32
2023-02-22T00:36:25.273Z,8.30
2023-02-22T00:41:35.165Z,8.31
2023-02-22T00:46:40.880Z,8.29
2023-02-22T00:51:42.974Z,8.28
2023-02-22T00:56:47.021Z,8.27
2023-02-22T01:01:51.181Z,8.25
2023-02-22T01:06:57.106Z,8.24
2023-02-22T01:12:05.460Z,8.23
2023-02-22T01:17:10.189Z,8.21
2023-02-22T01:22:12.191Z,8.17
2023-02-22T01:27:14.910Z,8.16
2023-02-22T01:32:18.927Z,8.15
2023-02-22T01:37:20.709Z,8.13
2023-02-22T01:42:24.766Z,8.09
2023-02-22T01:47:28.684Z,8.05
2023-02-22T01:52:30.409Z,8.02
2023-02-22T01:57:36.920Z,8.00
2023-02-22T02:02:49.503Z,7.96
2023-02-22T02:07:58.120Z,7.94
2023-02-22T02:13:04.010Z,7.92
2023-02-22T02:18:10.752Z,7.91
2023-02-22T02:23:51.344Z,7.93
2023-02-22T02:29:11.454Z,7.95
2023-02-22T02:34:22.623Z,7.97
2023-02-22T02:39:39.604Z,7.95
2023-02-22T02:44:47.850Z,7.96
2023-02-22T02:50:01.997Z,7.95
2023-02-22T02:55:07.738Z,7.95
2023-02-22T03:00:22.478Z,7.96
2023-02-22T03:05:44.593Z,7.95
2023-02-22T03:11:04.555Z,7.93
2023-02-22T03:16:30.191Z,7.93
2023-02-22T03:21:36.202Z,7.93
2023-02-22T03:26:45.534Z,7.92
2023-02-22T03:31:55.444Z,7.92
2023-02-22T03:37:04.469Z,7.92
2023-02-22T03:42:12.229Z,7.91
2023-02-22T03:47:19.076Z,7.89
2023-02-22T03:52:23.575Z,7.89
2023-02-22T03:57:28.436Z,7.89
2023-02-22T04:02:41.252Z,7.89
2023-02-22T04:07:46.788Z,7.89
2023-02-22T04:12:50.918Z,7.88
2023-02-22T04:17:55.197Z,7.88
2023-02-22T04:23:01.433Z,7.87
2023-02-22T04:28:07.859Z,7.86
2023-02-22T04:33:19.268Z,7.84
2023-02-22T04:38:21.468Z,7.81
2023-02-22T04:43:25.848Z,7.82
2023-02-22T04:48:35.010Z,7.79
2023-02-22T04:53:39.272Z,7.78
2023-02-22T04:58:44.432Z,7.77
2023-02-22T05:03:46.308Z,7.75
2023-02-22T05:08:54.743Z,7.75
2023-02-22T05:13:56.445Z,7.72
2023-02-22T05:19:02.509Z,7.70
2023-02-22T05:24:06.022Z,7.69
2023-02-22T05:29:07.777Z,7.68
2023-02-22T05:34:09.493Z,7.67
2023-02-22T05:39:13.555Z,7.68
2023-02-22T05:44:17.788Z,7.68
2023-02-22T05:49:22.255Z,7.66
2023-02-22T05:54:27.843Z,7.72
2023-02-22T05:59:30.261Z,7.72
2023-02-22T06:04:37.703Z,7.80
2023-02-22T06:09:46.460Z,7.75
2023-02-22T06:14:48.108Z,7.72
2023-02-22T06:19:49.853Z,7.70
2023-02-22T06:24:55.108Z,7.66
2023-02-22T06:29:57.875Z,7.62
2023-02-22T06:35:02.953Z,7.61
2023-02-22T06:40:05.888Z,7.61
2023-02-22T06:45:11.064Z,7.60
2023-02-22T06:50:24.880Z,7.59
2023-02-22T06:55:31.760Z,7.60
2023-02-22T07:00:36.270Z,7.60
2023-02-22T07:05:39.865Z,7.59
2023-02-22T07:10:41.688Z,7.55
2023-02-22T07:15:48.354Z,7.60
2023-02-22T07:20:50.407Z,7.59
2023-02-22T07:25:57.695Z,7.61
2023-02-22T07:31:01.512Z,7.63
2023-02-22T07:36:08.259Z,7.67
2023-02-22T07:41:12.214Z,7.74
2023-02-22T07:46:13.973Z,7.83
2023-02-22T07:51:20.901Z,7.94
2023-02-22T07:56:25.786Z,8.03
2023-02-22T08:01:32.359Z,8.05
2023-02-22T08:06:34.555Z,8.09
2023-02-22T08:11:40.088Z,8.11
2023-02-22T08:16:42.754Z,8.16
2023-02-22T08:21:44.765Z,8.17
2023-02-22T08:26:50.116Z,8.21
2023-02-22T08:31:55.394Z,8.29
2023-02-22T08:36:58.260Z,8.32
2023-02-22T08:42:00.525Z,8.41
2023-02-22T08:47:03.910Z,8.63
2023-02-22T08:52:12.695Z,8.76
2023-02-22T08:57:17.442Z,8.73
2023-02-22T09:02:22.811Z,8.78
2023-02-22T09:07:31.299Z,9.01
2023-02-22T09:12:35.840Z,9.19
2023-02-22T09:17:42.179Z,9.07
2023-02-22T09:22:51.117Z,9.12
2023-02-22T09:28:07.750Z,9.23
2023-02-22T09:33:22.878Z,9.22
2023-02-22T09:38:26.458Z,9.20
2023-02-22T09:43:42.125Z,9.12
2023-02-22T09:49:09.974Z,9.22
2023-02-22T09:54:26.470Z,9.35
2023-02-22T09:59:46.555Z,9.37
2023-02-22T10:05:09.020Z,9.58
2023-02-22T10:10:24.117Z,9.83
2023-02-22T10:15:37.277Z,9.86
2023-02-22T10:20:53.503Z,10.10
2023-02-22T10:26:16.511Z,10.23
2023-02-22T10:31:34.566Z,10.28
2023-02-22T10:36:39.142Z,10.27
2023-02-22T10:41:53.016Z,10.25
2023-02-22T10:46:58.659Z,10.33
2023-02-22T10:52:03.641Z,10.22
2023-02-22T10:57:05.577Z,10.23
2023-02-22T11:02:20.533Z,10.34
2023-02-22T11:07:32.716Z,10.02
2023-02-22T11:12:37.775Z,9.90
2023-02-22T11:17:41.097Z,9.72
2023-02-22T11:22:44.229Z,9.68
2023-02-22T11:27:48.876Z,9.63
2023-02-22T11:32:58.086Z,9.45
2023-02-22T11:38:16.219Z,9.61
2023-02-22T11:43:19.599Z,9.78
2023-02-22T11:48:25.587Z,9.80
2023-02-22T11:53:45.639Z,9.85
2023-02-22T11:58:55.408Z,10.04
2023-02-22T12:04:33.341Z,10.12
2023-02-22T12:09:41.032Z,10.31
2023-02-22T12:14:55.507Z,10.37
2023-02-22T12:20:06.968Z,10.42
2023-02-22T12:25:29.497Z,10.41
2023-02-22T12:30:38.713Z,10.32
2023-02-22T12:35:49.476Z,10.44
2023-02-22T12:40:54.484Z,10.47
2023-02-22T12:45:59.625Z,10.39
2023-02-22T12:51:19.284Z,10.36
2023-02-22T12:56:34.749Z,10.39
2023-02-22T13:01:43.242Z,10.38
2023-02-22T13:06:52.822Z,10.54
2023-02-22T13:12:02.933Z,10.45
2023-02-22T13:17:38.231Z,10.49
2023-02-22T13:22:52.410Z,10.70
2023-02-22T13:28:07.205Z,10.72
2023-02-22T13:33:25.730Z,10.87
2023-02-22T13:39:08.262Z,11.10
2023-02-22T13:44:35.307Z,11.21
2023-02-22T13:50:02.487Z,11.47
2023-02-22T13:55:11.332Z,11.63
2023-02-22T14:00:37.165Z,11.84
2023-02-22T14:05:42.429Z,11.88
2023-02-22T14:10:52.667Z,12.10
2023-02-22T14:16:00.604Z,11.92
2023-02-22T14:21:07.880Z,11.72
2023-02-22T14:26:20.518Z,11.54
2023-02-22T14:31:37.691Z,11.29
2023-02-22T14:36:50.905Z,11.12
2023-02-22T14:42:04.147Z,11.06
2023-02-22T14:47:08.710Z,11.04
2023-02-22T14:52:28.520Z,11.11
2023-02-22T14:57:48.441Z,11.15
2023-02-22T15:02:57.249Z,11.19
2023-02-22T15:08:03.564Z,11.17
2023-02-22T15:13:15.611Z,11.12
2023-02-22T15:18:23.438Z,11.05
2023-02-22T15:23:41.676Z,10.91
2023-02-22T15:28:45.826Z,10.82
2023-02-22T15:33:53.552Z,10.74
2023-02-22T15:38:55.904Z,10.69
2023-02-22T15:44:22.653Z,10.60
2023-02-22T15:49:36.609Z,10.52
2023-02-22T15:54:43.937Z,10.76
2023-02-22T15:59:54.727Z,10.52
2023-02-22T16:05:06.565Z,10.35
2023-02-22T16:10:29.913Z,10.20
2023-02-22T16:15:35.478Z,10.07
2023-02-22T16:20:37.737Z,9.94
2023-02-22T16:25:44.134Z,9.84
2023-02-22T16:30:59.135Z,9.73
2023-02-22T16:36:05.984Z,9.58
2023-02-22T16:41:09.955Z,9.43
2023-02-22T16:46:15.033Z,9.32
2023-02-22T16:51:27.108Z,9.19
2023-02-22T16:56:35.397Z,9.10
2023-02-22T17:01:39.421Z,9.07
2023-02-22T17:06:41.259Z,9.03
2023-02-22T17:11:46.277Z,9.05
2023-02-22T17:16:48.036Z,9.07
2023-02-22T17:21:50.463Z,9.06
2023-02-22T17:26:57.401Z,9.07
2023-02-22T17:31:59.300Z,9.06
2023-02-22T17:37:06.180Z,9.02
2023-02-22T17:42:10.626Z,8.97
2023-02-22T17:47:12.602Z,8.92
2023-02-22T17:52:15.979Z,8.87
2023-02-22T17:57:20.175Z,8.79
2023-02-22T18:02:25.595Z,8.78
2023-02-22T18:07:27.477Z,8.74
2023-02-22T18:12:30.020Z,8.72
2023-02-22T18:17:34.341Z,8.68
2023-02-22T18:22:38.628Z,8.62
2023-02-22T18:27:44.851Z,8.58
2023-02-22T18:32:49.153Z,8.53
2023-02-22T18:37:53.564Z,8.44
2023-02-22T18:43:01.803Z,8.39
2023-02-22T18:48:05.947Z,8.34
2023-02-22T18:53:12.397Z,8.28
2023-02-22T18:58:19.770Z,8.21
2023-02-22T19:03:29.554Z,8.19
2023-02-22T19:08:39.768Z,8.17
2023-02-22T19:13:41.906Z,8.13
2023-02-22T19:18:44.391Z,8.08
2023-02-22T19:23:46.445Z,8.05
2023-02-22T19:28:53.005Z,8.08
2023-02-22T19:34:00.665Z,8.08
2023-02-22T19:39:09.251Z,8.10
2023-02-22T19:44:20.233Z,8.14
2023-02-22T19:49:27.890Z,8.17
2023-02-22T19:54:29.975Z,8.21
2023-02-22T19:59:41.563Z,8.20
2023-02-22T20:04:53.050Z,8.19
2023-02-22T20:10:00.011Z,8.20
2023-02-22T20:15:11.913Z,8.21
2023-02-22T20:20:18.160Z,8.20
2023-02-22T20:25:30.049Z,8.16
2023-02-22T20:30:45.647Z,8.12
2023-02-22T20:35:53.739Z,8.08
2023-02-22T20:41:11.275Z,8.03
2023-02-22T20:46:15.952Z,7.91
2023-02-22T20:51:20.755Z,7.78
2023-02-22T20:56:33.271Z,7.68
2023-02-22T21:01:36.554Z,7.67
2023-02-22T21:06:45.891Z,7.73
2023-02-22T21:11:50.296Z,7.71
2023-02-22T21:16:59.911Z,7.73
2023-02-22T21:22:09.340Z,7.69
2023-02-22T21:27:15.229Z,7.69
2023-02-22T21:32:20.551Z,7.67
2023-02-22T21:37:23.429Z,7.64
2023-02-22T21:42:31.094Z,7.62
2023-02-22T21:47:35.869Z,7.59
2023-02-22T21:52:40.372Z,7.55
2023-02-22T21:57:43.199Z,7.54
2023-02-22T22:02:48.269Z,7.50
2023-02-22T22:07:57.308Z,7.49
2023-02-22T22:12:59.643Z,7.47
2023-02-22T22:18:06.638Z,7.49
2023-02-22T22:23:12.604Z,7.48
2023-02-22T22:28:14.417Z,7.47
2023-02-22T22:33:17.813Z,7.42
2023-02-22T22:38:20.764Z,7.40
2023-02-22T22:43:22.475Z,7.40
2023-02-22T22:48:25.225Z,7.42
2023-02-22T22:53:32.520Z,7.40
2023-02-22T22:58:35.198Z,7.39
2023-02-22T23:03:39.286Z,7.39
2023-02-22T23:08:44.023Z,7.37
2023-02-22T23:13:50.194Z,7.35
2023-02-22T23:18:54.226Z,7.36
2023-02-22T23:24:00.037Z,7.37
2023-02-22T23:29:03.729Z,7.36
2023-02-22T23:34:11.181Z,7.30
2023-02-22T23:39:20.597Z,7.31
2023-02-22T23:44:27.092Z,7.28
2023-02-22T23:49:38.108Z,7.28
2023-02-22T23:54:43.847Z,7.28
2023-02-22T23:59:51.373Z,7.27
